Time;durP1;ratioP1;P1;durP2;ratioP2;P2;SDS_P1;SDS_P2;PMS_P1;PMS_P2;Temp;Humidity;BMP_temperature;BMP_pressure;BME280_temperature;BME280_humidity;BME280_pressure;Samples;Min_cycle;Max_cycle;Signal;HPM_P1;HPM_P2
2022/01/07 00:01:01;;;;;;;9.90;4.43;;;-0.70;99.90;;;;;;5159679;28;20190;-48
2022/01/07 00:03:32;;;;;;;9.00;4.80;;;-0.60;99.90;;;;;;5160567;28;20187;-49
2022/01/07 00:06:03;;;;;;;11.17;5.20;;;-0.70;99.90;;;;;;5167383;28;20474;-48
2022/01/07 00:08:34;;;;;;;15.27;5.90;;;-0.70;99.90;;;;;;5147014;28;20460;-48
2022/01/07 00:11:04;;;;;;;9.70;4.50;;;-0.70;99.90;;;;;;5149671;28;20193;-49
2022/01/07 00:13:35;;;;;;;6.70;4.13;;;-0.70;99.90;;;;;;5165096;28;20700;-49
2022/01/07 00:16:06;;;;;;;8.30;4.40;;;-0.70;99.90;;;;;;5147587;28;20291;-49
2022/01/07 00:18:39;;;;;;;9.27;4.20;;;-0.70;99.90;;;;;;5146397;28;20520;-48
2022/01/07 00:21:11;;;;;;;12.30;3.90;;;-0.70;99.90;;;;;;5163820;28;20487;-48
2022/01/07 00:23:42;;;;;;;10.53;3.83;;;-0.70;99.90;;;;;;5161361;28;20439;-47
2022/01/07 00:26:12;;;;;;;10.90;4.23;;;-0.70;99.90;;;;;;5159121;28;20448;-48
2022/01/07 00:28:43;;;;;;;10.23;4.17;;;-0.70;99.90;;;;;;5147105;28;20654;-47
2022/01/07 00:31:13;;;;;;;17.50;5.40;;;-0.70;99.90;;;;;;5165264;28;20181;-48
2022/01/07 00:33:44;;;;;;;14.83;5.37;;;-0.70;99.90;;;;;;5166388;28;20593;-48
2022/01/07 00:36:15;;;;;;;11.70;4.40;;;-0.70;99.90;;;;;;5163635;28;20279;-49
2022/01/07 00:38:45;;;;;;;7.40;4.10;;;-0.60;99.90;;;;;;5164191;28;20185;-48
2022/01/07 00:41:16;;;;;;;15.63;4.33;;;-0.60;99.90;;;;;;5162096;28;20196;-48
2022/01/07 00:43:48;;;;;;;11.50;4.53;;;-0.60;99.90;;;;;;5162923;28;20214;-49
2022/01/07 00:46:20;;;;;;;10.77;4.60;;;-0.60;99.90;;;;;;5164402;28;20188;-49
2022/01/07 00:48:51;;;;;;;14.37;4.40;;;-0.50;99.90;;;;;;5168407;28;20565;-47
2022/01/07 00:51:21;;;;;;;11.13;5.27;;;-0.50;99.90;;;;;;5159004;28;20531;-55
2022/01/07 00:53:52;;;;;;;14.00;4.43;;;-0.50;99.90;;;;;;5158970;28;20178;-48
2022/01/07 00:56:23;;;;;;;6.20;4.27;;;-0.50;99.90;;;;;;5164657;28;20200;-48
2022/01/07 00:58:53;;;;;;;7.83;3.37;;;-0.40;99.90;;;;;;5142449;28;20523;-49
2022/01/07 01:01:24;;;;;;;19.73;4.33;;;-0.50;99.90;;;;;;5157040;28;20233;-48
2022/01/07 01:03:54;;;;;;;8.83;3.80;;;-0.50;99.90;;;;;;5159434;28;20187;-49
2022/01/07 01:06:25;;;;;;;20.17;4.40;;;-0.50;99.90;;;;;;5165940;28;20201;-48
2022/01/07 01:08:55;;;;;;;11.60;3.90;;;-0.50;99.90;;;;;;5144750;28;20221;-49
2022/01/07 01:11:26;;;;;;;16.10;3.33;;;-0.50;99.90;;;;;;5161108;28;20241;-48
2022/01/07 01:13:56;;;;;;;16.23;4.50;;;-0.50;99.90;;;;;;5162282;28;20185;-48
2022/01/07 01:16:27;;;;;;;8.60;4.47;;;-0.50;99.90;;;;;;5148880;23;20225;-48
2022/01/07 01:18:58;;;;;;;15.93;4.43;;;-0.50;99.90;;;;;;5161976;28;20193;-48
2022/01/07 01:21:29;;;;;;;8.67;4.13;;;-0.50;99.90;;;;;;5159228;28;20196;-47
2022/01/07 01:23:59;;;;;;;16.13;6.20;;;-0.50;99.90;;;;;;5141946;28;20589;-48
2022/01/07 01:26:29;;;;;;;13.90;5.53;;;-0.30;99.90;;;;;;5166031;28;20248;-47
2022/01/07 01:29:00;;;;;;;13.00;5.47;;;-0.10;99.90;;;;;;5156442;28;20680;-51
2022/01/07 01:31:32;;;;;;;28.27;6.30;;;-0.10;99.90;;;;;;5146141;28;20260;-48
2022/01/07 01:34:04;;;;;;;16.77;5.57;;;-0.30;99.90;;;;;;5147641;28;20207;-47
2022/01/07 01:36:34;;;;;;;18.00;5.03;;;-0.40;99.90;;;;;;5150736;28;20474;-47
2022/01/07 01:39:05;;;;;;;6.57;4.40;;;-0.20;99.90;;;;;;5161831;28;20432;-48
2022/01/07 01:41:36;;;;;;;17.73;4.20;;;-0.40;99.90;;;;;;5154211;28;20732;-47
2022/01/07 01:44:07;;;;;;;25.60;5.43;;;-0.50;99.90;;;;;;5142567;28;20188;-49
2022/01/07 01:46:37;;;;;;;11.30;4.00;;;-0.50;99.90;;;;;;5154758;28;20218;-49
2022/01/07 01:49:09;;;;;;;11.80;4.67;;;-0.40;99.90;;;;;;5161970;28;20192;-51
2022/01/07 01:51:39;;;;;;;7.10;3.97;;;-0.30;99.90;;;;;;5126118;28;20630;-48
2022/01/07 01:54:10;;;;;;;6.97;4.10;;;-0.10;99.90;;;;;;5163200;28;20548;-48
2022/01/07 01:56:41;;;;;;;13.93;4.63;;;-0.20;99.90;;;;;;5164524;28;20660;-47
2022/01/07 01:59:11;;;;;;;6.10;3.90;;;-0.30;99.90;;;;;;5159384;28;20664;-49
2022/01/07 02:01:42;;;;;;;15.20;4.83;;;-0.40;99.90;;;;;;5157407;28;20569;-47
2022/01/07 02:04:12;;;;;;;18.57;4.80;;;-0.50;99.90;;;;;;5161495;28;20224;-48
2022/01/07 02:06:43;;;;;;;18.23;4.87;;;-0.60;99.90;;;;;;5161121;28;20213;-48
2022/01/07 02:09:14;;;;;;;20.10;4.90;;;-0.60;99.90;;;;;;5160569;28;20604;-47
2022/01/07 02:11:44;;;;;;;8.60;4.17;;;-0.70;99.90;;;;;;5149967;28;20213;-48
2022/01/07 02:14:15;;;;;;;11.23;5.07;;;-0.70;99.90;;;;;;5158922;28;20459;-47
2022/01/07 02:16:45;;;;;;;30.27;6.10;;;-0.70;99.90;;;;;;5148866;28;20193;-48
2022/01/07 02:19:16;;;;;;;8.70;5.00;;;-0.60;99.90;;;;;;5145229;28;20271;-48
2022/01/07 02:21:46;;;;;;;9.20;4.67;;;-0.70;99.90;;;;;;5163260;28;20207;-48
2022/01/07 02:24:17;;;;;;;13.00;5.30;;;-0.60;99.90;;;;;;5127887;28;21828;-48
2022/01/07 02:26:48;;;;;;;14.97;4.43;;;-0.60;99.90;;;;;;5154299;28;20196;-49
2022/01/07 02:29:18;;;;;;;12.77;5.13;;;-0.50;99.90;;;;;;5142597;28;20208;-48
2022/01/07 02:31:49;;;;;;;8.47;4.47;;;-0.60;99.90;;;;;;5148066;28;20181;-48
2022/01/07 02:34:20;;;;;;;21.03;5.70;;;-0.70;99.90;;;;;;5167342;28;20177;-47
2022/01/07 02:36:51;;;;;;;32.67;6.40;;;-0.80;99.90;;;;;;5163500;28;20432;-49
2022/01/07 02:39:21;;;;;;;18.70;5.00;;;-0.80;99.90;;;;;;5140974;28;20281;-49
2022/01/07 02:41:52;;;;;;;12.13;5.40;;;-0.80;99.90;;;;;;5143933;28;20272;-48
2022/01/07 02:44:23;;;;;;;16.07;5.90;;;-0.80;99.90;;;;;;5148070;28;20192;-49
2022/01/07 02:46:53;;;;;;;20.57;5.23;;;-0.80;99.90;;;;;;5145720;28;20228;-48
2022/01/07 02:49:24;;;;;;;8.37;5.30;;;-0.80;99.90;;;;;;5154021;28;20268;-49
2022/01/07 02:51:54;;;;;;;12.60;5.13;;;-0.70;99.90;;;;;;5148045;28;20680;-49
2022/01/07 02:54:25;;;;;;;11.73;5.03;;;-0.70;99.90;;;;;;5166062;28;20219;-48
2022/01/07 02:56:55;;;;;;;11.27;6.10;;;-0.50;99.90;;;;;;5163959;28;20192;-50
2022/01/07 02:59:26;;;;;;;20.80;6.47;;;-0.60;99.90;;;;;;5161233;28;20685;-48
2022/01/07 03:01:56;;;;;;;27.50;5.83;;;-0.50;99.90;;;;;;5163819;28;20637;-48
2022/01/07 03:04:28;;;;;;;10.90;5.30;;;-0.50;99.90;;;;;;5151862;28;20181;-48
2022/01/07 03:06:58;;;;;;;12.70;5.37;;;-0.50;99.90;;;;;;5161777;28;20229;-48
2022/01/07 03:09:29;;;;;;;16.27;5.97;;;-0.40;99.90;;;;;;5157139;28;20986;-48
2022/01/07 03:11:59;;;;;;;7.17;4.40;;;-0.40;99.90;;;;;;5161915;28;20733;-49
2022/01/07 03:14:30;;;;;;;11.60;4.80;;;-0.40;99.90;;;;;;5161539;28;20657;-50
2022/01/07 03:17:00;;;;;;;22.07;6.50;;;-0.50;99.90;;;;;;5163139;28;20588;-49
2022/01/07 03:19:31;;;;;;;9.90;5.40;;;-0.60;99.90;;;;;;5162618;28;20241;-49
2022/01/07 03:22:02;;;;;;;20.63;4.80;;;-0.60;99.90;;;;;;5146815;28;20576;-49
2022/01/07 03:24:32;;;;;;;17.63;5.73;;;-0.60;99.90;;;;;;5147606;28;20256;-48
2022/01/07 03:27:03;;;;;;;12.80;5.03;;;-0.60;99.90;;;;;;5165150;28;20191;-48
2022/01/07 03:29:34;;;;;;;17.97;5.70;;;-0.70;99.90;;;;;;5147317;28;20190;-47
2022/01/07 03:32:05;;;;;;;11.30;5.20;;;-0.60;99.90;;;;;;5158566;28;20182;-48
2022/01/07 03:34:35;;;;;;;13.43;4.90;;;-0.70;99.90;;;;;;5160887;28;20460;-48
2022/01/07 03:37:06;;;;;;;10.67;5.73;;;-0.80;99.90;;;;;;5159500;28;20704;-47
2022/01/07 03:39:36;;;;;;;20.13;6.10;;;-0.80;99.90;;;;;;5157808;28;20269;-48
2022/01/07 03:42:07;;;;;;;13.27;6.10;;;-0.60;99.90;;;;;;5155522;28;20201;-48
2022/01/07 03:44:38;;;;;;;15.90;5.27;;;-0.60;99.90;;;;;;5152060;28;20223;-49
2022/01/07 03:47:09;;;;;;;11.30;5.60;;;-0.60;99.90;;;;;;5139782;28;20303;-47
2022/01/07 03:49:39;;;;;;;6.90;4.80;;;-0.70;99.90;;;;;;5164966;28;20211;-49
2022/01/07 03:52:10;;;;;;;13.50;6.57;;;-0.80;99.90;;;;;;5160118;28;20215;-49
2022/01/07 03:54:40;;;;;;;18.63;5.97;;;-0.80;99.90;;;;;;5141318;28;20205;-48
2022/01/07 03:57:11;;;;;;;9.57;5.50;;;-0.60;99.90;;;;;;5161260;28;20650;-49
2022/01/07 03:59:42;;;;;;;14.00;5.97;;;-0.60;99.90;;;;;;5161759;28;20177;-48
2022/01/07 04:02:12;;;;;;;7.20;5.07;;;-0.60;99.90;;;;;;5159684;28;20215;-49
2022/01/07 04:04:43;;;;;;;17.83;6.17;;;-0.60;99.90;;;;;;5148902;28;20208;-48
2022/01/07 04:07:14;;;;;;;15.53;6.40;;;-0.60;99.90;;;;;;5142223;28;20189;-51
2022/01/07 04:09:45;;;;;;;11.37;5.40;;;-0.50;99.90;;;;;;5132223;28;20201;-47
2022/01/07 04:12:15;;;;;;;10.50;4.80;;;-0.50;99.90;;;;;;5144529;28;20268;-48
2022/01/07 04:14:49;;;;;;;19.17;6.47;;;-0.40;99.90;;;;;;5152682;28;20280;-47
2022/01/07 04:17:19;;;;;;;8.93;5.83;;;-0.40;99.90;;;;;;5146250;28;20177;-49
2022/01/07 04:19:50;;;;;;;11.13;5.37;;;-0.30;99.90;;;;;;5157584;28;20444;-48
2022/01/07 04:22:20;;;;;;;14.20;6.70;;;-0.20;99.90;;;;;;5148752;28;20201;-48
2022/01/07 04:24:51;;;;;;;12.40;5.87;;;-0.30;99.90;;;;;;5164994;28;20204;-47
2022/01/07 04:27:21;;;;;;;13.27;5.60;;;-0.10;99.90;;;;;;5158517;28;20273;-48
2022/01/07 04:29:52;;;;;;;5.97;5.00;;;-0.10;99.90;;;;;;5148057;28;20623;-48
2022/01/07 04:32:23;;;;;;;9.63;5.10;;;-0.20;99.90;;;;;;5153691;28;20834;-50
2022/01/07 04:34:53;;;;;;;16.10;6.50;;;-0.30;99.90;;;;;;5165455;28;20662;-48
2022/01/07 04:37:24;;;;;;;11.93;6.17;;;-0.30;99.90;;;;;;5152913;28;20227;-48
2022/01/07 04:39:54;;;;;;;11.07;5.63;;;-0.20;99.90;;;;;;5161003;28;20197;-50
2022/01/07 04:42:25;;;;;;;6.10;5.30;;;-0.20;99.90;;;;;;5145451;28;20220;-48
2022/01/07 04:44:56;;;;;;;12.43;5.67;;;-0.10;99.90;;;;;;5162221;28;20221;-49
2022/01/07 04:47:26;;;;;;;13.60;5.13;;;-0.10;99.90;;;;;;5141095;28;20217;-49
2022/01/07 04:49:57;;;;;;;8.47;5.00;;;0.00;99.90;;;;;;5166096;28;20225;-48
2022/01/07 04:52:27;;;;;;;9.33;5.23;;;-0.10;99.90;;;;;;5136468;28;20189;-48
2022/01/07 04:54:58;;;;;;;13.10;5.20;;;0.00;99.90;;;;;;5163385;28;20233;-48
2022/01/07 04:57:29;;;;;;;14.93;5.97;;;-0.10;99.90;;;;;;5162372;28;20196;-48
2022/01/07 04:59:59;;;;;;;14.50;6.37;;;-0.20;99.90;;;;;;5144245;28;20506;-48
2022/01/07 05:02:30;;;;;;;10.83;5.07;;;-0.20;99.90;;;;;;5161835;28;20196;-48
2022/01/07 05:05:00;;;;;;;14.00;7.00;;;-0.10;99.90;;;;;;5150894;28;20292;-47
2022/01/07 05:07:33;;;;;;;11.47;6.87;;;-0.10;99.90;;;;;;5162726;28;20220;-51
2022/01/07 05:10:07;;;;;;;7.53;5.10;;;-0.20;99.90;;;;;;5152805;28;20263;-51
2022/01/07 05:12:38;;;;;;;15.53;5.07;;;0.00;99.90;;;;;;5159828;28;20440;-48
2022/01/07 05:15:09;;;;;;;16.97;5.63;;;-0.10;99.90;;;;;;5156868;28;20560;-49
2022/01/07 05:17:41;;;;;;;8.33;6.43;;;0.00;99.90;;;;;;5159639;28;20424;-49
2022/01/07 05:20:14;;;;;;;9.57;5.10;;;0.00;99.90;;;;;;5162445;28;20443;-49
2022/01/07 05:22:45;;;;;;;10.00;4.80;;;0.00;99.90;;;;;;5161442;28;20433;-50
2022/01/07 05:25:16;;;;;;;8.57;6.47;;;-0.10;99.90;;;;;;5148315;28;20452;-48
2022/01/07 05:27:47;;;;;;;9.47;5.57;;;-0.10;99.90;;;;;;5160674;28;20445;-49
2022/01/07 05:30:18;;;;;;;12.30;7.37;;;-0.10;99.90;;;;;;5158810;28;20495;-50
2022/01/07 05:32:49;;;;;;;31.57;9.97;;;0.00;99.90;;;;;;5161892;28;20229;-50
2022/01/07 05:35:19;;;;;;;15.93;6.73;;;0.00;99.90;;;;;;5146080;28;20458;-49
2022/01/07 05:37:50;;;;;;;12.20;4.37;;;-0.10;99.90;;;;;;5148892;28;20181;-48
2022/01/07 05:40:20;;;;;;;17.33;5.60;;;-0.10;99.90;;;;;;5163790;28;20572;-50
2022/01/07 05:42:51;;;;;;;12.00;5.63;;;0.20;99.90;;;;;;5156411;28;20193;-50
2022/01/07 05:45:22;;;;;;;7.60;5.63;;;0.10;99.90;;;;;;5142157;28;20661;-50
2022/01/07 05:47:52;;;;;;;6.80;4.60;;;0.20;99.90;;;;;;5160391;28;20657;-49
2022/01/07 05:50:23;;;;;;;8.37;4.73;;;0.10;99.90;;;;;;5159818;28;20213;-50
2022/01/07 05:52:53;;;;;;;9.37;4.50;;;0.10;99.90;;;;;;5163600;28;20247;-49
2022/01/07 05:55:24;;;;;;;7.37;4.50;;;0.00;99.90;;;;;;5165164;28;20243;-49
2022/01/07 05:57:55;;;;;;;9.13;4.70;;;0.20;99.90;;;;;;5143820;28;20204;-48
2022/01/07 06:00:25;;;;;;;8.50;4.80;;;0.40;99.90;;;;;;5146329;28;20189;-49
2022/01/07 06:02:56;;;;;;;10.80;4.30;;;0.30;99.90;;;;;;5164705;28;20185;-49
2022/01/07 06:05:26;;;;;;;14.80;4.30;;;0.20;99.90;;;;;;5162670;28;20223;-50
2022/01/07 06:07:57;;;;;;;10.00;4.67;;;0.30;99.90;;;;;;5161211;28;20553;-50
2022/01/07 06:10:28;;;;;;;13.43;5.33;;;0.30;99.90;;;;;;5143437;28;20798;-48
2022/01/07 06:12:58;;;;;;;12.20;4.27;;;0.20;99.90;;;;;;5161797;28;20189;-47
2022/01/07 06:15:29;;;;;;;6.50;5.27;;;0.20;99.90;;;;;;5151046;28;20206;-48
2022/01/07 06:18:03;;;;;;;9.70;4.80;;;0.20;99.90;;;;;;5149450;28;20653;-49
2022/01/07 06:20:33;;;;;;;8.60;5.63;;;0.30;99.90;;;;;;5163959;28;20189;-48
2022/01/07 06:23:04;;;;;;;9.13;5.00;;;0.30;99.90;;;;;;5166287;28;20582;-49
2022/01/07 06:25:34;;;;;;;14.93;5.07;;;0.20;99.90;;;;;;5150361;28;20205;-49
2022/01/07 06:28:05;;;;;;;12.97;5.13;;;0.30;99.90;;;;;;5164766;28;20186;-48
2022/01/07 06:30:36;;;;;;;21.43;7.50;;;0.40;99.90;;;;;;5160011;28;20193;-49
2022/01/07 06:33:06;;;;;;;16.30;6.97;;;0.20;99.90;;;;;;5156384;28;20214;-47
2022/01/07 06:35:37;;;;;;;10.17;4.00;;;0.20;99.90;;;;;;5143413;28;20255;-48
2022/01/07 06:38:07;;;;;;;24.57;6.97;;;0.30;99.90;;;;;;5151966;28;20182;-49
2022/01/07 06:40:38;;;;;;;28.90;8.00;;;0.30;99.90;;;;;;5161400;28;20190;-49
2022/01/07 06:43:08;;;;;;;26.47;9.83;;;0.30;99.90;;;;;;5126925;28;20590;-48
2022/01/07 06:45:40;;;;;;;18.60;7.97;;;0.20;99.90;;;;;;5152555;28;20252;-48
2022/01/07 06:48:10;;;;;;;24.27;6.33;;;0.10;99.90;;;;;;5162108;28;20193;-49
2022/01/07 06:50:42;;;;;;;19.77;6.00;;;0.10;99.90;;;;;;5141567;28;20439;-48
2022/01/07 06:53:12;;;;;;;20.43;5.90;;;0.30;99.90;;;;;;5139683;28;20180;-49
2022/01/07 06:55:43;;;;;;;12.33;5.60;;;0.40;99.90;;;;;;5159452;28;20461;-50
2022/01/07 06:58:14;;;;;;;8.83;5.03;;;0.40;99.90;;;;;;5161284;28;20193;-48
2022/01/07 07:00:44;;;;;;;13.30;5.47;;;0.20;99.90;;;;;;5156729;28;20174;-48
2022/01/07 07:03:15;;;;;;;7.40;4.83;;;0.20;99.90;;;;;;5162844;28;20214;-49
2022/01/07 07:05:45;;;;;;;9.47;5.00;;;0.30;99.90;;;;;;5158696;28;20950;-49
2022/01/07 07:08:16;;;;;;;10.53;4.70;;;0.30;99.90;;;;;;5155777;28;20192;-49
2022/01/07 07:10:46;;;;;;;12.37;4.80;;;0.20;99.90;;;;;;5135018;28;20228;-49
2022/01/07 07:13:17;;;;;;;10.60;4.90;;;0.30;99.90;;;;;;5156363;28;20277;-50
2022/01/07 07:15:47;;;;;;;5.93;4.23;;;0.30;99.90;;;;;;5181964;23;20239;-52
2022/01/07 07:18:18;;;;;;;10.63;4.60;;;0.40;99.90;;;;;;5147515;28;20265;-53
2022/01/07 07:20:48;;;;;;;11.73;4.83;;;0.30;99.90;;;;;;5144272;28;20269;-52
2022/01/07 07:23:19;;;;;;;8.10;5.93;;;0.30;99.90;;;;;;5142700;28;20602;-51
2022/01/07 07:25:51;;;;;;;12.07;5.50;;;0.30;99.90;;;;;;5115765;28;20585;-51
2022/01/07 07:28:21;;;;;;;11.93;4.57;;;0.40;99.90;;;;;;5118432;28;20225;-51
2022/01/07 07:30:55;;;;;;;10.67;4.33;;;0.50;99.90;;;;;;5096670;28;21162;-54
2022/01/07 07:38:48;;;;;;;5.90;4.47;;;0.60;99.90;;;;;;5123599;28;20675;-53
2022/01/07 07:41:19;;;;;;;10.73;4.83;;;0.60;99.90;;;;;;5116403;28;20525;-52
2022/01/07 07:43:50;;;;;;;9.80;5.40;;;0.60;99.90;;;;;;5119353;28;20651;-53
2022/01/07 07:46:20;;;;;;;10.27;5.30;;;0.50;99.90;;;;;;5108610;28;20222;-53
2022/01/07 07:48:52;;;;;;;5.60;4.90;;;0.50;99.90;;;;;;5107019;28;20232;-52
2022/01/07 07:51:22;;;;;;;13.60;6.17;;;0.70;99.90;;;;;;5119708;28;20229;-52
2022/01/07 07:53:53;;;;;;;17.47;5.13;;;0.70;99.90;;;;;;5104495;28;21429;-54
2022/01/07 07:56:26;;;;;;;11.63;5.43;;;0.70;99.90;;;;;;5118938;28;20305;-53
2022/01/07 07:58:58;;;;;;;5.70;5.10;;;0.60;99.90;;;;;;5121908;28;20440;-52
2022/01/07 08:01:28;;;;;;;12.33;5.50;;;0.70;99.90;;;;;;5122815;28;20452;-53
2022/01/07 08:03:59;;;;;;;16.53;5.17;;;0.70;99.90;;;;;;5104485;28;20978;-53
2022/01/07 08:06:30;;;;;;;22.63;5.47;;;0.70;99.90;;;;;;5121557;28;20681;-50
2022/01/07 08:09:02;;;;;;;13.23;4.50;;;0.70;99.90;;;;;;5129660;28;20238;-52
2022/01/07 08:11:47;;;;;;;7.90;3.50;;;0.90;99.90;;;;;;5104508;29;20434;-50
2022/01/07 08:17:08;;;;;;;20.00;4.17;;;0.90;99.90;;;;;;5126745;28;20473;-52
2022/01/07 08:19:39;;;;;;;10.30;4.33;;;0.80;99.90;;;;;;5108264;28;20434;-51
2022/01/07 08:22:10;;;;;;;7.83;3.50;;;0.90;99.90;;;;;;5121017;28;20811;-53
2022/01/07 08:24:41;;;;;;;9.57;4.40;;;0.80;99.90;;;;;;5105086;28;20190;-51
2022/01/07 08:27:11;;;;;;;18.23;4.40;;;0.80;99.90;;;;;;5123107;28;20452;-51
2022/01/07 08:29:43;;;;;;;8.10;4.57;;;0.80;99.90;;;;;;5110152;28;20392;-52
2022/01/07 08:35:04;;;;;;;13.50;5.80;;;1.20;99.90;;;;;;5123173;28;20455;-52
2022/01/07 08:37:34;;;;;;;13.33;4.40;;;1.20;99.90;;;;;;5123019;28;20482;-51
2022/01/07 08:40:06;;;;;;;16.10;6.40;;;1.10;99.90;;;;;;5117959;28;20445;-50
2022/01/07 08:42:36;;;;;;;15.47;6.13;;;1.20;99.90;;;;;;5119206;28;20190;-51
2022/01/07 08:45:07;;;;;;;16.90;5.97;;;1.30;99.90;;;;;;5120856;28;20822;-51
2022/01/07 08:47:38;;;;;;;5.60;3.77;;;1.40;99.90;;;;;;5120370;28;20184;-50
2022/01/07 08:50:08;;;;;;;10.60;3.80;;;1.30;99.90;;;;;;5102483;28;20470;-50
2022/01/07 08:52:39;;;;;;;7.10;4.37;;;1.30;99.90;;;;;;5104022;29;20230;-52
2022/01/07 08:55:10;;;;;;;7.77;4.43;;;1.30;99.90;;;;;;5102703;28;20191;-54
2022/01/07 08:57:41;;;;;;;6.30;4.90;;;1.40;99.90;;;;;;5124742;28;20217;-50
2022/01/07 09:00:12;;;;;;;12.03;5.20;;;1.30;99.90;;;;;;5108242;29;20870;-54
2022/01/07 09:02:43;;;;;;;40.47;19.37;;;1.40;99.90;;;;;;5121702;28;20210;-53
2022/01/07 09:05:13;;;;;;;17.63;9.67;;;1.40;99.90;;;;;;5102983;29;20535;-52
2022/01/07 09:07:44;;;;;;;8.67;6.07;;;1.30;99.90;;;;;;5106928;28;20654;-52
2022/01/07 09:10:14;;;;;;;16.47;7.13;;;1.60;99.90;;;;;;5117482;28;20289;-54
2022/01/07 09:12:46;;;;;;;11.90;5.33;;;1.60;99.90;;;;;;5101558;28;20216;-52
2022/01/07 09:15:17;;;;;;;18.53;5.00;;;1.60;99.90;;;;;;5112770;28;20205;-52
2022/01/07 09:17:49;;;;;;;14.60;5.63;;;1.70;99.90;;;;;;5122773;28;20823;-53
2022/01/07 09:20:21;;;;;;;11.47;5.60;;;1.80;99.90;;;;;;5122108;28;20178;-51
2022/01/07 09:22:53;;;;;;;9.23;5.87;;;1.90;99.90;;;;;;5119621;28;20433;-52
2022/01/07 09:25:23;;;;;;;9.33;5.43;;;2.20;99.90;;;;;;5123884;28;20464;-52
2022/01/07 09:27:54;;;;;;;11.70;5.87;;;2.20;99.90;;;;;;5126549;28;20537;-52
2022/01/07 09:30:25;;;;;;;14.23;5.57;;;2.30;99.90;;;;;;5122318;28;20218;-51
2022/01/07 09:32:55;;;;;;;9.70;5.97;;;2.20;99.90;;;;;;5103950;29;20183;-51
2022/01/07 09:35:27;;;;;;;22.07;9.17;;;2.20;99.90;;;;;;5119713;28;20209;-51
2022/01/07 09:37:57;;;;;;;7.00;5.60;;;2.50;99.90;;;;;;5109075;28;20245;-52
2022/01/07 09:40:28;;;;;;;7.73;5.20;;;2.50;99.90;;;;;;5107479;29;20438;-52
2022/01/07 09:43:04;;;;;;;11.20;7.40;;;2.50;99.90;;;;;;5119043;28;20597;-51
2022/01/07 09:45:37;;;;;;;10.37;5.77;;;2.50;99.90;;;;;;5105313;28;20233;-52
2022/01/07 09:48:10;;;;;;;14.43;6.00;;;2.40;99.90;;;;;;5103783;29;20497;-51
2022/01/07 09:50:40;;;;;;;19.53;7.70;;;2.50;99.90;;;;;;5103500;28;20531;-50
2022/01/07 09:53:13;;;;;;;12.93;6.70;;;2.50;99.90;;;;;;5087549;28;20434;-51
2022/01/07 09:55:44;;;;;;;13.53;6.37;;;2.40;99.90;;;;;;5120318;28;20206;-50
2022/01/07 09:58:15;;;;;;;12.37;5.40;;;2.60;99.90;;;;;;5117722;28;20966;-51
2022/01/07 10:00:46;;;;;;;12.80;4.87;;;2.70;99.90;;;;;;5116859;28;20214;-52
2022/01/07 10:03:17;;;;;;;13.33;5.40;;;2.70;99.90;;;;;;5101849;29;20628;-52
2022/01/07 10:05:49;;;;;;;9.27;5.03;;;2.70;99.90;;;;;;5115073;28;20206;-52
2022/01/07 10:08:27;;;;;;;9.57;5.40;;;2.80;99.90;;;;;;5099271;28;21354;-54
2022/01/07 10:11:14;;;;;;;10.97;5.20;;;2.90;99.90;;;;;;5121755;28;20434;-51
2022/01/07 10:13:47;;;;;;;16.73;5.30;;;2.80;99.90;;;;;;5120654;28;20437;-52
2022/01/07 10:16:23;;;;;;;19.13;6.33;;;2.80;99.90;;;;;;5118937;28;20485;-53
2022/01/07 10:18:56;;;;;;;9.47;4.43;;;2.90;99.90;;;;;;5104293;29;20986;-52
2022/01/07 10:21:27;;;;;;;11.23;5.70;;;3.10;99.90;;;;;;5117420;28;20797;-50
2022/01/07 10:24:02;;;;;;;14.30;5.53;;;3.40;99.90;;;;;;5105053;28;20434;-52
2022/01/07 10:26:33;;;;;;;12.67;5.03;;;3.40;99.90;;;;;;5118391;28;20210;-52
2022/01/07 10:29:27;;;;;;;12.23;5.80;;;3.50;99.90;;;;;;5120488;28;20469;-53
2022/01/07 10:32:20;;;;;;;11.83;5.13;;;3.60;99.90;;;;;;5103905;29;20188;-52
2022/01/07 10:35:09;;;;;;;10.63;5.03;;;3.60;99.90;;;;;;5119853;28;20437;-51
2022/01/07 10:37:56;;;;;;;19.80;4.57;;;3.70;99.90;;;;;;5121814;28;20440;-52
2022/01/07 10:40:34;;;;;;;9.80;3.87;;;3.60;99.90;;;;;;5117099;28;20561;-51
2022/01/07 10:43:17;;;;;;;8.90;5.20;;;3.60;99.90;;;;;;5098117;28;20453;-52
2022/01/07 10:45:55;;;;;;;9.37;5.50;;;3.70;99.90;;;;;;5119048;28;20485;-52
2022/01/07 10:48:56;;;;;;;6.07;4.40;;;3.60;99.90;;;;;;5105221;28;20434;-51
2022/01/07 10:51:36;;;;;;;6.60;4.00;;;3.60;99.90;;;;;;5108971;29;20526;-52
2022/01/07 10:54:10;;;;;;;7.80;4.43;;;3.60;99.90;;;;;;5119323;29;20521;-53
2022/01/07 10:56:47;;;;;;;10.90;4.30;;;3.70;99.90;;;;;;5123754;28;20871;-53
2022/01/07 10:59:20;;;;;;;7.90;4.60;;;3.70;99.90;;;;;;5110439;29;20471;-51
2022/01/07 11:01:57;;;;;;;12.10;5.50;;;3.80;99.90;;;;;;5121771;28;20429;-52
2022/01/07 11:04:31;;;;;;;6.60;4.33;;;3.80;99.90;;;;;;5125110;28;20437;-52
2022/01/07 11:07:09;;;;;;;14.90;5.80;;;3.80;99.90;;;;;;5120367;28;20457;-51
2022/01/07 11:09:40;;;;;;;10.20;3.87;;;3.80;99.90;;;;;;5125803;28;20469;-51
2022/01/07 11:12:11;;;;;;;6.83;4.97;;;3.80;99.90;;;;;;5091628;28;20442;-52
2022/01/07 11:14:42;;;;;;;17.73;5.33;;;3.80;99.90;;;;;;5122704;28;20252;-51
2022/01/07 11:17:20;;;;;;;6.73;4.17;;;3.70;99.90;;;;;;5103486;29;20454;-54
2022/01/07 11:19:59;;;;;;;6.23;4.07;;;3.70;99.90;;;;;;5119105;28;20202;-52
2022/01/07 11:22:30;;;;;;;6.40;4.40;;;3.80;99.90;;;;;;5114646;28;20958;-52
2022/01/07 11:25:10;;;;;;;7.73;4.60;;;3.70;99.90;;;;;;5125782;28;20508;-53
2022/01/07 11:27:58;;;;;;;10.77;5.73;;;3.70;99.90;;;;;;5126497;29;20188;-51
2022/01/07 11:30:32;;;;;;;12.97;5.67;;;3.60;99.90;;;;;;5126747;28;20474;-52
2022/01/07 11:33:19;;;;;;;10.20;5.53;;;3.60;99.90;;;;;;5127605;28;20962;-52
2022/01/07 11:35:49;;;;;;;7.73;4.80;;;3.70;99.90;;;;;;5124780;28;20458;-51
2022/01/07 11:38:37;;;;;;;8.90;5.00;;;3.70;99.90;;;;;;5105132;28;20442;-51
2022/01/07 11:41:13;;;;;;;4.47;4.03;;;3.70;99.90;;;;;;5126834;28;20267;-52
2022/01/07 11:43:46;;;;;;;9.30;4.50;;;3.60;99.90;;;;;;5121531;28;20437;-52
2022/01/07 11:46:23;;;;;;;14.23;5.33;;;3.70;99.90;;;;;;5118987;28;20469;-52
2022/01/07 11:48:55;;;;;;;8.43;5.37;;;3.60;99.90;;;;;;5112387;29;20478;-53
2022/01/07 11:51:39;;;;;;;15.00;5.80;;;3.60;99.90;;;;;;5127842;28;20866;-52
2022/01/07 11:54:11;;;;;;;11.00;5.70;;;3.60;99.90;;;;;;5123536;28;20478;-52
2022/01/07 11:56:42;;;;;;;15.40;5.60;;;3.50;99.90;;;;;;5126248;28;20462;-51
2022/01/07 11:59:20;;;;;;;8.13;5.53;;;3.50;99.90;;;;;;5125711;28;20438;-53
2022/01/07 12:02:01;;;;;;;10.63;4.87;;;3.40;99.90;;;;;;5125856;28;20422;-52
2022/01/07 12:04:33;;;;;;;6.03;5.50;;;3.40;99.90;;;;;;5122517;28;20477;-53
2022/01/07 12:07:05;;;;;;;9.90;5.87;;;3.40;99.90;;;;;;5124266;28;20477;-53
2022/01/07 12:09:37;;;;;;;18.40;5.70;;;3.40;99.90;;;;;;5109381;29;20548;-52
2022/01/07 12:12:13;;;;;;;14.13;5.53;;;3.30;99.90;;;;;;5108396;28;20457;-52
2022/01/07 12:14:53;;;;;;;6.57;4.90;;;3.30;99.90;;;;;;5123630;28;20444;-53
2022/01/07 12:17:25;;;;;;;7.83;5.07;;;3.40;99.90;;;;;;5123539;28;20461;-52
2022/01/07 12:20:22;;;;;;;13.63;5.87;;;3.30;99.90;;;;;;5121905;28;20434;-52
2022/01/07 12:22:54;;;;;;;19.73;6.43;;;3.30;99.90;;;;;;5114714;29;20446;-53
2022/01/07 12:25:25;;;;;;;11.13;5.60;;;3.30;99.90;;;;;;5108049;29;20460;-52
2022/01/07 12:28:01;;;;;;;16.33;6.77;;;3.30;99.90;;;;;;5109591;28;20438;-54
2022/01/07 12:30:32;;;;;;;14.33;5.63;;;3.40;99.90;;;;;;5124863;28;20241;-53
2022/01/07 12:33:05;;;;;;;8.10;5.60;;;3.30;99.90;;;;;;5125021;28;20426;-52
2022/01/07 12:35:37;;;;;;;15.50;5.73;;;3.30;99.90;;;;;;5120186;28;20210;-52
2022/01/07 12:38:19;;;;;;;13.30;5.30;;;3.30;99.90;;;;;;5120313;28;20453;-55
2022/01/07 12:40:56;;;;;;;10.67;6.30;;;3.30;99.90;;;;;;5125224;28;20431;-53
2022/01/07 12:43:33;;;;;;;17.10;5.53;;;3.30;99.90;;;;;;5126060;28;20429;-51
2022/01/07 12:46:06;;;;;;;14.73;5.77;;;3.30;99.90;;;;;;5123876;28;20453;-53
2022/01/07 12:48:40;;;;;;;9.27;5.27;;;3.30;99.90;;;;;;5124568;28;20450;-53
2022/01/07 12:51:10;;;;;;;18.93;6.10;;;3.30;99.90;;;;;;5122916;28;20793;-51
2022/01/07 12:53:56;;;;;;;9.97;5.67;;;3.30;99.90;;;;;;5106769;28;20435;-53
2022/01/07 12:56:30;;;;;;;9.17;5.47;;;3.40;99.90;;;;;;5123751;28;20198;-53
2022/01/07 12:59:17;;;;;;;11.60;6.00;;;3.40;99.90;;;;;;5125990;28;20520;-52
2022/01/07 13:01:49;;;;;;;15.60;5.97;;;3.40;99.90;;;;;;5122958;28;20938;-54
2022/01/07 13:04:22;;;;;;;7.13;5.70;;;3.40;99.90;;;;;;5123589;28;20442;-50
2022/01/07 13:06:55;;;;;;;8.63;6.07;;;3.30;99.90;;;;;;5110213;29;20469;-52
2022/01/07 13:09:29;;;;;;;12.53;6.57;;;3.30;99.90;;;;;;5122557;28;20986;-52
2022/01/07 13:12:00;;;;;;;12.23;6.70;;;3.30;99.90;;;;;;5112201;29;20473;-53
2022/01/07 13:14:31;;;;;;;17.80;6.10;;;3.30;99.90;;;;;;5123812;28;20946;-51
2022/01/07 13:17:03;;;;;;;14.27;6.40;;;3.40;99.90;;;;;;5121924;28;20466;-52
2022/01/07 13:19:43;;;;;;;16.43;6.20;;;3.30;99.90;;;;;;5124633;28;20183;-52
2022/01/07 13:22:14;;;;;;;15.67;7.63;;;3.30;99.90;;;;;;5123314;28;20448;-54